Time;durP1;ratioP1;P1;durP2;ratioP2;P2;SDS_P1;SDS_P2;PMS_P1;PMS_P2;Temp;Humidity;BMP_temperature;BMP_pressure;BME280_temperature;BME280_humidity;BME280_pressure;Samples;Min_cycle;Max_cycle;Signal;HPM_P1;HPM_P2
2023/12/15 00:00:37;;;;;;;2.42;2.15;;;3.70;99.90;;;;;;5047471;28;20210;-75
2023/12/15 00:03:04;;;;;;;7.15;3.47;;;3.70;99.90;;;;;;5047525;28;20739;-75
2023/12/15 00:05:32;;;;;;;2.63;2.40;;;3.70;99.90;;;;;;5040450;28;20677;-75
2023/12/15 00:07:59;;;;;;;4.68;2.45;;;3.70;99.90;;;;;;5033711;28;20202;-75
2023/12/15 00:10:26;;;;;;;5.00;2.35;;;3.70;99.90;;;;;;5045281;28;20260;-75
2023/12/15 00:12:53;;;;;;;2.63;2.42;;;3.70;99.90;;;;;;5047617;28;20206;-75
2023/12/15 00:15:20;;;;;;;7.38;3.60;;;3.70;99.90;;;;;;5047193;28;20249;-75
2023/12/15 00:17:47;;;;;;;3.22;2.28;;;3.70;99.90;;;;;;5047535;28;20231;-75
2023/12/15 00:20:14;;;;;;;2.65;2.33;;;3.70;99.90;;;;;;5046720;28;20653;-75
2023/12/15 00:22:42;;;;;;;3.15;1.88;;;3.70;99.90;;;;;;5047166;28;20217;-75
2023/12/15 00:25:09;;;;;;;2.28;1.88;;;3.60;99.90;;;;;;5045964;28;20550;-75
2023/12/15 00:27:36;;;;;;;3.85;2.42;;;3.70;99.90;;;;;;5047109;28;20205;-74
2023/12/15 00:30:03;;;;;;;2.55;2.00;;;3.70;99.90;;;;;;5046806;28;20198;-75
2023/12/15 00:32:29;;;;;;;3.53;2.00;;;3.70;99.90;;;;;;5047013;28;20260;-74
2023/12/15 00:34:56;;;;;;;6.80;3.38;;;3.70;99.90;;;;;;5046639;28;20578;-75
2023/12/15 00:37:23;;;;;;;4.13;2.42;;;3.70;99.90;;;;;;5048972;28;20627;-74
2023/12/15 00:39:51;;;;;;;5.82;3.10;;;3.70;99.90;;;;;;5046245;28;20309;-74
2023/12/15 00:42:18;;;;;;;2.95;2.47;;;3.70;99.90;;;;;;5042590;28;20198;-74
2023/12/15 00:44:45;;;;;;;3.15;1.80;;;3.60;99.90;;;;;;5046717;28;20217;-76
2023/12/15 00:47:11;;;;;;;2.28;1.70;;;3.60;99.90;;;;;;5046783;28;20218;-74
2023/12/15 00:49:38;;;;;;;2.47;1.63;;;3.60;99.90;;;;;;5043259;28;20203;-74
2023/12/15 00:52:06;;;;;;;3.45;1.92;;;3.60;99.90;;;;;;5046377;28;20205;-75
2023/12/15 00:54:33;;;;;;;2.60;2.40;;;3.60;99.90;;;;;;5051143;28;20209;-75
2023/12/15 00:57:01;;;;;;;2.70;1.38;;;3.60;99.90;;;;;;5042608;28;20253;-74
2023/12/15 00:59:28;;;;;;;1.60;1.48;;;3.60;99.90;;;;;;5046140;28;20253;-74
2023/12/15 01:01:55;;;;;;;1.38;1.27;;;3.60;99.90;;;;;;5046838;28;20209;-74
2023/12/15 01:04:21;;;;;;;2.00;1.77;;;3.60;99.90;;;;;;5046263;28;20207;-74
2023/12/15 01:06:48;;;;;;;1.80;1.70;;;3.50;99.90;;;;;;5046043;28;20206;-74
2023/12/15 01:09:15;;;;;;;1.73;1.45;;;3.50;99.90;;;;;;5046220;28;20199;-75
2023/12/15 01:11:42;;;;;;;3.45;2.28;;;3.50;99.90;;;;;;5045575;28;20596;-74
2023/12/15 01:14:10;;;;;;;3.72;1.17;;;3.50;99.90;;;;;;5046350;28;20208;-75
2023/12/15 01:16:44;;;;;;;2.70;2.38;;;3.50;99.90;;;;;;5046098;28;20203;-75
2023/12/15 01:19:11;;;;;;;1.23;1.10;;;3.50;99.90;;;;;;5046119;28;20219;-76
2023/12/15 01:21:38;;;;;;;4.30;2.13;;;3.50;99.90;;;;;;5046341;28;20199;-75
2023/12/15 01:24:05;;;;;;;2.17;1.67;;;3.50;99.90;;;;;;5045472;28;20195;-74
2023/12/15 01:26:32;;;;;;;1.30;1.15;;;3.40;99.90;;;;;;5045244;28;20209;-74
2023/12/15 01:28:59;;;;;;;1.98;1.70;;;3.50;99.90;;;;;;5038915;28;20218;-74
2023/12/15 01:31:27;;;;;;;1.63;1.30;;;3.40;99.90;;;;;;5045814;28;20198;-75
2023/12/15 01:33:54;;;;;;;3.35;3.10;;;3.30;99.90;;;;;;5045648;28;20205;-75
2023/12/15 01:36:19;;;;;;;3.63;1.90;;;3.30;99.90;;;;;;5046323;28;20201;-74
2023/12/15 01:38:46;;;;;;;1.70;1.60;;;3.30;99.90;;;;;;5048103;28;20552;-74
2023/12/15 01:41:13;;;;;;;4.78;3.22;;;3.30;99.90;;;;;;5045199;28;20463;-74
2023/12/15 01:43:40;;;;;;;5.00;3.53;;;3.30;99.90;;;;;;5046186;28;20214;-74
2023/12/15 01:46:07;;;;;;;3.65;2.65;;;3.30;99.90;;;;;;5045931;28;20263;-74
2023/12/15 01:48:35;;;;;;;2.08;1.88;;;3.20;99.90;;;;;;5045817;28;20551;-75
2023/12/15 01:51:02;;;;;;;2.88;2.25;;;3.20;99.90;;;;;;5045555;28;20207;-75
2023/12/15 01:53:29;;;;;;;3.47;2.80;;;3.20;99.90;;;;;;5049861;28;20203;-75
2023/12/15 01:55:56;;;;;;;3.47;2.55;;;3.20;99.90;;;;;;5045353;28;20577;-75
2023/12/15 01:58:22;;;;;;;2.47;1.88;;;3.30;99.90;;;;;;5045540;28;20580;-75
2023/12/15 02:00:49;;;;;;;4.63;2.95;;;3.30;99.90;;;;;;5044568;28;20286;-75
2023/12/15 02:03:16;;;;;;;4.18;2.38;;;3.30;99.90;;;;;;5046199;28;20210;-75
2023/12/15 02:05:44;;;;;;;5.63;2.90;;;3.30;99.90;;;;;;5044448;28;20205;-75
2023/12/15 02:08:11;;;;;;;3.78;2.95;;;3.30;99.90;;;;;;5045779;28;20807;-75
2023/12/15 02:10:38;;;;;;;5.38;3.83;;;3.40;99.90;;;;;;5045616;28;20230;-75
2023/12/15 02:13:06;;;;;;;4.10;3.15;;;3.40;99.90;;;;;;5045666;28;20535;-75
2023/12/15 02:15:35;;;;;;;6.15;3.63;;;3.40;99.90;;;;;;5045014;28;20631;-75
2023/12/15 02:18:02;;;;;;;4.03;2.47;;;3.30;99.90;;;;;;5046070;28;20251;-75
2023/12/15 02:20:31;;;;;;;3.65;3.28;;;3.30;99.90;;;;;;5045613;28;20291;-75
2023/12/15 02:23:00;;;;;;;6.35;3.55;;;3.20;99.90;;;;;;5044999;28;20211;-75
2023/12/15 02:25:29;;;;;;;3.45;2.65;;;3.30;99.90;;;;;;5045383;28;20200;-75
2023/12/15 02:27:57;;;;;;;3.88;3.05;;;3.20;99.90;;;;;;5039051;28;20208;-75
2023/12/15 02:30:24;;;;;;;7.30;3.15;;;3.20;99.90;;;;;;5045780;28;20203;-75
2023/12/15 02:32:52;;;;;;;3.08;2.28;;;3.20;99.90;;;;;;5045714;28;20207;-75
2023/12/15 02:35:20;;;;;;;3.10;2.00;;;3.20;99.90;;;;;;5048572;28;20213;-75
2023/12/15 02:37:47;;;;;;;2.35;1.95;;;3.10;99.90;;;;;;5048805;28;20203;-75
2023/12/15 02:40:15;;;;;;;2.63;2.13;;;3.10;99.90;;;;;;5042607;28;20227;-75
2023/12/15 02:42:43;;;;;;;3.17;2.17;;;3.10;99.90;;;;;;5048961;28;20252;-75
2023/12/15 02:45:10;;;;;;;3.22;2.55;;;3.00;99.90;;;;;;5042157;28;20286;-75
2023/12/15 02:47:37;;;;;;;3.42;2.63;;;3.10;99.90;;;;;;5049037;28;20239;-75
2023/12/15 02:50:06;;;;;;;2.70;1.88;;;3.10;99.90;;;;;;5048643;28;20744;-75
2023/12/15 02:52:33;;;;;;;4.05;2.30;;;3.10;99.90;;;;;;5048058;28;20215;-75
2023/12/15 02:55:00;;;;;;;3.75;2.80;;;3.10;99.90;;;;;;5050733;28;20207;-75
2023/12/15 02:57:29;;;;;;;3.50;3.20;;;3.20;99.90;;;;;;5049021;28;20203;-75
2023/12/15 02:59:57;;;;;;;3.75;2.60;;;3.20;99.90;;;;;;5048512;28;20655;-75
2023/12/15 03:02:24;;;;;;;4.53;2.55;;;3.30;99.90;;;;;;5048924;28;20192;-75
2023/12/15 03:04:52;;;;;;;2.83;2.60;;;3.30;99.90;;;;;;5048455;28;20680;-75
2023/12/15 03:07:20;;;;;;;2.47;2.15;;;3.30;99.90;;;;;;5046738;28;20215;-75
2023/12/15 03:09:47;;;;;;;5.88;2.55;;;3.30;99.90;;;;;;5048382;28;20735;-75
2023/12/15 03:12:16;;;;;;;4.75;2.65;;;3.40;99.90;;;;;;5048800;28;20211;-75
2023/12/15 03:14:44;;;;;;;2.55;2.33;;;3.40;99.90;;;;;;5048728;28;20210;-75
2023/12/15 03:17:11;;;;;;;3.05;2.70;;;3.40;99.90;;;;;;5048525;28;20231;-75
2023/12/15 03:19:39;;;;;;;3.60;2.33;;;3.40;99.90;;;;;;5047933;28;20323;-75
2023/12/15 03:22:07;;;;;;;3.53;2.83;;;3.40;99.90;;;;;;5048073;28;20665;-75
2023/12/15 03:24:34;;;;;;;1.50;1.40;;;3.40;99.90;;;;;;5047255;28;20267;-75
2023/12/15 03:27:01;;;;;;;1.90;1.52;;;3.50;99.90;;;;;;5045887;28;20204;-75
2023/12/15 03:29:28;;;;;;;3.25;2.58;;;3.50;99.90;;;;;;5049088;28;20560;-75
2023/12/15 03:31:57;;;;;;;3.50;2.60;;;3.50;99.90;;;;;;5047635;28;20683;-75
2023/12/15 03:34:25;;;;;;;3.22;2.45;;;3.50;99.90;;;;;;5048165;28;20207;-75
2023/12/15 03:36:52;;;;;;;3.20;2.90;;;3.60;99.90;;;;;;5049099;28;20299;-75
2023/12/15 03:39:20;;;;;;;3.92;3.15;;;3.60;99.90;;;;;;5047581;28;20235;-75
2023/12/15 03:41:47;;;;;;;3.15;2.10;;;3.60;99.90;;;;;;5046443;28;20234;-75
2023/12/15 03:44:14;;;;;;;2.83;2.58;;;3.50;99.90;;;;;;5048697;28;20279;-75
2023/12/15 03:46:41;;;;;;;2.90;2.22;;;3.60;99.90;;;;;;5046889;28;20219;-75
2023/12/15 03:49:09;;;;;;;2.58;2.38;;;3.70;99.90;;;;;;5044385;28;20665;-75
2023/12/15 03:51:36;;;;;;;2.80;2.30;;;3.70;99.90;;;;;;5047122;28;20197;-75
2023/12/15 03:54:03;;;;;;;3.95;2.40;;;3.70;99.90;;;;;;5051464;28;20633;-75
2023/12/15 03:56:30;;;;;;;3.15;2.00;;;3.70;99.90;;;;;;5047928;28;20535;-75
2023/12/15 03:58:56;;;;;;;2.60;2.25;;;3.60;99.90;;;;;;5044483;28;20237;-75
2023/12/15 04:01:23;;;;;;;2.55;2.22;;;3.60;99.90;;;;;;5035865;28;20635;-75
2023/12/15 04:03:50;;;;;;;3.70;2.80;;;3.60;99.90;;;;;;5045494;28;20192;-75
2023/12/15 04:06:18;;;;;;;4.85;3.83;;;3.70;99.90;;;;;;5047697;28;20199;-75
2023/12/15 04:08:45;;;;;;;2.35;1.85;;;3.70;99.90;;;;;;5045609;28;20195;-75
2023/12/15 04:11:12;;;;;;;2.67;1.63;;;3.70;99.90;;;;;;5040698;28;20204;-75
2023/12/15 04:13:38;;;;;;;2.45;2.25;;;3.70;99.90;;;;;;5047640;28;20202;-75
2023/12/15 04:16:06;;;;;;;5.90;2.42;;;3.80;99.90;;;;;;5046098;28;20200;-75
2023/12/15 04:18:33;;;;;;;3.22;2.67;;;3.80;99.90;;;;;;5047413;28;20203;-75
2023/12/15 04:21:00;;;;;;;4.40;3.33;;;3.80;99.90;;;;;;5047017;28;20231;-75
2023/12/15 04:23:28;;;;;;;1.95;1.85;;;3.90;99.90;;;;;;5047312;28;20196;-75
2023/12/15 04:25:57;;;;;;;3.00;2.80;;;3.90;99.90;;;;;;5046916;28;20237;-76
2023/12/15 04:28:24;;;;;;;5.40;3.42;;;3.90;99.90;;;;;;5047215;28;20204;-75
2023/12/15 04:30:51;;;;;;;2.95;2.55;;;3.90;99.90;;;;;;5046158;28;20204;-75
2023/12/15 04:33:18;;;;;;;2.97;2.72;;;3.90;99.90;;;;;;5046628;28;20605;-75
2023/12/15 04:35:45;;;;;;;2.75;2.55;;;3.80;99.90;;;;;;5045384;28;20196;-75
2023/12/15 04:38:11;;;;;;;2.30;2.10;;;3.90;99.90;;;;;;5048993;28;20294;-75
2023/12/15 04:40:40;;;;;;;4.05;3.10;;;3.80;99.90;;;;;;5046227;28;20693;-75
2023/12/15 04:43:07;;;;;;;2.67;2.13;;;3.90;99.90;;;;;;5047431;28;20199;-75
2023/12/15 04:45:34;;;;;;;4.53;2.30;;;3.90;99.90;;;;;;5046062;28;20192;-75
2023/12/15 04:48:01;;;;;;;4.22;2.90;;;3.90;99.90;;;;;;5040240;28;20291;-75
2023/12/15 04:50:28;;;;;;;4.50;3.92;;;3.90;99.90;;;;;;5046428;28;20203;-75
2023/12/15 04:52:55;;;;;;;3.50;3.20;;;3.90;99.90;;;;;;5044497;28;20211;-75
2023/12/15 04:55:21;;;;;;;4.10;3.15;;;3.90;99.90;;;;;;5050357;28;20196;-75
2023/12/15 04:57:49;;;;;;;4.93;2.85;;;3.90;99.90;;;;;;5045418;28;20291;-75
2023/12/15 05:00:16;;;;;;;3.03;2.72;;;3.90;99.90;;;;;;5046206;28;20223;-75
2023/12/15 05:02:44;;;;;;;3.42;2.60;;;3.90;99.90;;;;;;5046710;28;20233;-75
2023/12/15 05:05:10;;;;;;;5.80;3.38;;;3.90;99.90;;;;;;5046684;28;20192;-76
2023/12/15 05:07:37;;;;;;;3.47;3.08;;;3.90;99.90;;;;;;5046510;28;20208;-75
2023/12/15 05:10:05;;;;;;;4.65;3.08;;;3.90;99.90;;;;;;5040480;28;20199;-75
2023/12/15 05:12:34;;;;;;;2.50;2.30;;;3.90;99.90;;;;;;5046349;28;20412;-75
2023/12/15 05:15:02;;;;;;;1.70;1.55;;;3.90;99.90;;;;;;5046144;28;20738;-76
2023/12/15 05:17:29;;;;;;;3.55;2.75;;;3.90;99.90;;;;;;5046675;28;20527;-76
2023/12/15 05:19:56;;;;;;;1.83;1.65;;;4.00;99.90;;;;;;5046059;28;20556;-75
2023/12/15 05:22:23;;;;;;;3.75;3.42;;;3.90;99.90;;;;;;5041265;28;20574;-75
2023/12/15 05:24:50;;;;;;;2.20;2.10;;;4.00;99.90;;;;;;5046027;28;20205;-75
2023/12/15 05:27:17;;;;;;;4.03;3.63;;;4.00;99.90;;;;;;5044050;28;20206;-74
2023/12/15 05:29:45;;;;;;;3.30;2.05;;;3.90;99.90;;;;;;5043193;28;20200;-73
2023/12/15 05:32:14;;;;;;;3.00;2.78;;;4.00;99.90;;;;;;5046492;28;20659;-76
2023/12/15 05:34:41;;;;;;;5.25;3.28;;;4.00;99.90;;;;;;5045928;28;20286;-77
2023/12/15 05:37:08;;;;;;;3.78;3.00;;;4.00;99.90;;;;;;5048198;28;20210;-78
2023/12/15 05:39:35;;;;;;;2.70;2.42;;;4.00;99.90;;;;;;5045142;28;20227;-77
2023/12/15 05:42:01;;;;;;;4.00;3.60;;;4.00;99.90;;;;;;5040989;28;20199;-77
2023/12/15 05:44:28;;;;;;;2.75;2.55;;;4.00;99.90;;;;;;5045074;28;20200;-77
2023/12/15 05:46:55;;;;;;;5.40;3.00;;;4.00;99.90;;;;;;5045928;28;20222;-75
2023/12/15 05:49:24;;;;;;;3.85;2.53;;;4.00;99.90;;;;;;5045349;28;20616;-75
2023/12/15 05:51:50;;;;;;;3.25;2.50;;;3.90;99.90;;;;;;5046057;28;20700;-75
2023/12/15 05:54:17;;;;;;;4.30;3.60;;;4.00;99.90;;;;;;5049100;28;20210;-75
2023/12/15 05:56:44;;;;;;;3.70;2.55;;;3.90;99.90;;;;;;5045707;28;20200;-75
2023/12/15 05:59:11;;;;;;;2.92;2.63;;;3.90;99.90;;;;;;5046359;28;20443;-75
2023/12/15 06:01:37;;;;;;;6.22;2.70;;;3.90;99.90;;;;;;5045160;28;20234;-75
2023/12/15 06:04:04;;;;;;;4.72;3.53;;;3.90;99.90;;;;;;5045440;28;20192;-73
2023/12/15 06:06:33;;;;;;;3.63;2.75;;;3.90;99.90;;;;;;5046022;28;20537;-74
2023/12/15 06:08:59;;;;;;;3.53;3.22;;;4.00;99.90;;;;;;5046374;28;20200;-74
2023/12/15 06:11:27;;;;;;;3.50;2.70;;;3.90;99.90;;;;;;5049653;28;20199;-74
2023/12/15 06:13:54;;;;;;;5.28;3.53;;;4.00;99.90;;;;;;5041581;28;20246;-74
2023/12/15 06:16:21;;;;;;;4.07;2.72;;;4.00;99.90;;;;;;5039598;28;20287;-73
2023/12/15 06:18:48;;;;;;;2.90;2.40;;;4.00;99.90;;;;;;5047673;28;20658;-73
2023/12/15 06:21:22;;;;;;;5.30;2.88;;;4.00;99.90;;;;;;5043912;28;20218;-73
2023/12/15 06:23:50;;;;;;;4.22;3.30;;;4.00;99.90;;;;;;5045330;28;20621;-73
2023/12/15 06:26:20;;;;;;;3.65;2.47;;;4.00;99.90;;;;;;5046116;28;20295;-73
2023/12/15 06:28:48;;;;;;;6.38;2.72;;;4.00;99.90;;;;;;5048807;28;20200;-74
2023/12/15 06:31:15;;;;;;;5.78;3.10;;;4.00;99.90;;;;;;5046996;28;20202;-74
2023/12/15 06:33:42;;;;;;;3.28;2.83;;;4.00;99.90;;;;;;5047995;28;20653;-73
2023/12/15 06:36:10;;;;;;;3.58;3.08;;;4.10;99.90;;;;;;5048360;28;20750;-73
2023/12/15 06:38:37;;;;;;;3.47;3.17;;;4.10;99.90;;;;;;5049477;28;20234;-73
2023/12/15 06:41:06;;;;;;;3.70;3.35;;;4.20;99.90;;;;;;5043068;28;20228;-74
2023/12/15 06:43:33;;;;;;;7.15;3.58;;;4.20;99.90;;;;;;5048511;28;20554;-72
2023/12/15 06:46:00;;;;;;;2.85;2.22;;;4.10;99.90;;;;;;5046931;28;20228;-73
2023/12/15 06:48:27;;;;;;;3.80;3.10;;;4.10;99.90;;;;;;5047238;28;20218;-73
2023/12/15 06:50:53;;;;;;;3.97;2.70;;;4.00;99.90;;;;;;5045002;28;20665;-73
2023/12/15 06:53:20;;;;;;;4.22;3.58;;;4.00;99.90;;;;;;5043483;28;20560;-73
2023/12/15 06:55:47;;;;;;;2.85;2.15;;;4.00;99.90;;;;;;5049444;28;20226;-73
2023/12/15 06:58:15;;;;;;;3.80;3.50;;;4.00;99.90;;;;;;5048699;28;20210;-73
2023/12/15 07:00:42;;;;;;;3.00;2.60;;;4.00;99.90;;;;;;5047373;28;20224;-73
2023/12/15 07:03:09;;;;;;;3.95;3.05;;;4.00;99.90;;;;;;5047137;28;20204;-73
2023/12/15 07:05:36;;;;;;;3.08;2.58;;;4.10;99.90;;;;;;5047588;28;20196;-74
2023/12/15 07:08:02;;;;;;;2.50;2.30;;;4.00;99.90;;;;;;5047707;28;20214;-73
2023/12/15 07:10:29;;;;;;;4.85;3.13;;;4.00;99.90;;;;;;5047314;28;20202;-73
2023/12/15 07:12:56;;;;;;;3.03;2.20;;;4.10;99.90;;;;;;5047509;28;20704;-73
2023/12/15 07:15:27;;;;;;;2.60;2.40;;;4.10;99.90;;;;;;5046582;28;20204;-73
2023/12/15 07:17:54;;;;;;;3.78;3.25;;;4.00;99.90;;;;;;5046939;28;20200;-73
2023/12/15 07:20:21;;;;;;;4.22;3.38;;;4.10;99.90;;;;;;5045635;28;20346;-73
2023/12/15 07:22:48;;;;;;;4.65;3.67;;;4.10;99.90;;;;;;5047716;28;20541;-72
2023/12/15 07:25:15;;;;;;;6.20;3.25;;;4.10;99.90;;;;;;5047371;28;20196;-75
2023/12/15 07:27:42;;;;;;;3.60;2.78;;;4.10;99.90;;;;;;5047639;28;20196;-72
2023/12/15 07:30:09;;;;;;;4.53;4.00;;;4.20;99.90;;;;;;5046788;28;20744;-72
2023/12/15 07:32:37;;;;;;;5.07;3.47;;;4.20;99.90;;;;;;5047555;28;20682;-73
2023/12/15 07:35:05;;;;;;;3.10;2.80;;;4.30;99.90;;;;;;5047375;28;20673;-72
2023/12/15 07:37:32;;;;;;;4.88;3.20;;;4.30;99.90;;;;;;5048119;28;20210;-72
2023/12/15 07:39:59;;;;;;;4.70;2.97;;;4.30;99.90;;;;;;5047084;28;20203;-72
2023/12/15 07:42:26;;;;;;;7.65;3.90;;;4.30;99.90;;;;;;5043180;28;20196;-72
2023/12/15 07:44:53;;;;;;;2.90;2.70;;;4.40;99.90;;;;;;5046886;28;20312;-72
2023/12/15 07:47:19;;;;;;;4.30;3.25;;;4.50;99.90;;;;;;5046262;28;20688;-72
2023/12/15 07:49:47;;;;;;;6.30;3.03;;;4.40;99.90;;;;;;5041237;28;20669;-72
2023/12/15 07:52:14;;;;;;;4.40;2.90;;;4.50;99.90;;;;;;5047348;28;20279;-72
2023/12/15 07:54:41;;;;;;;3.72;3.35;;;4.40;99.90;;;;;;5049405;28;20196;-72
2023/12/15 07:57:08;;;;;;;3.33;3.03;;;4.50;99.90;;;;;;5044275;28;20195;-72
2023/12/15 07:59:35;;;;;;;8.80;5.78;;;4.60;99.90;;;;;;5042851;28;20195;-72
2023/12/15 08:02:03;;;;;;;5.50;3.80;;;4.70;99.90;;;;;;5039281;28;20227;-72
2023/12/15 08:04:30;;;;;;;5.05;3.55;;;4.80;99.90;;;;;;5046595;28;20204;-72
2023/12/15 08:06:58;;;;;;;5.18;3.92;;;4.80;99.90;;;;;;5046866;28;20294;-72
2023/12/15 08:09:25;;;;;;;10.88;4.57;;;4.80;99.90;;;;;;5046459;28;20200;-72
2023/12/15 08:11:52;;;;;;;4.32;3.88;;;4.70;99.90;;;;;;5045305;28;20206;-72
2023/12/15 08:14:19;;;;;;;3.25;2.95;;;4.80;99.90;;;;;;5046753;28;20206;-72
2023/12/15 08:16:46;;;;;;;4.00;3.08;;;4.80;99.90;;;;;;5045801;28;20200;-72
2023/12/15 08:19:12;;;;;;;4.15;3.85;;;4.60;99.90;;;;;;5047027;28;20202;-72
2023/12/15 08:21:39;;;;;;;5.03;3.38;;;4.70;99.90;;;;;;5046532;28;20226;-72
2023/12/15 08:24:08;;;;;;;3.55;2.90;;;4.80;99.90;;;;;;5045363;28;20204;-71
2023/12/15 08:26:34;;;;;;;4.78;3.92;;;4.70;99.90;;;;;;5043687;28;20547;-71
2023/12/15 08:29:01;;;;;;;8.07;4.22;;;4.60;99.90;;;;;;5046483;28;20211;-72
2023/12/15 08:31:28;;;;;;;4.40;4.00;;;4.70;99.90;;;;;;5046011;28;20287;-72
2023/12/15 08:33:55;;;;;;;3.85;2.85;;;4.70;99.90;;;;;;5046338;28;20262;-72
2023/12/15 08:36:22;;;;;;;5.13;4.22;;;4.70;99.90;;;;;;5046400;28;20225;-71
2023/12/15 08:38:48;;;;;;;5.57;3.53;;;5.00;99.90;;;;;;5041747;28;20286;-72
2023/12/15 08:41:17;;;;;;;4.20;3.90;;;4.90;99.90;;;;;;5043825;28;20236;-72
2023/12/15 08:43:44;;;;;;;4.70;3.55;;;4.90;99.90;;;;;;5046082;28;20550;-71
2023/12/15 08:46:10;;;;;;;4.20;3.80;;;5.00;99.90;;;;;;5043510;28;20260;-71
2023/12/15 08:48:37;;;;;;;3.97;3.58;;;5.00;99.90;;;;;;5041347;28;20655;-71
2023/12/15 08:51:04;;;;;;;4.85;4.00;;;5.10;99.90;;;;;;5045416;28;20573;-72
2023/12/15 08:53:31;;;;;;;4.82;3.88;;;5.10;99.90;;;;;;5048661;28;20657;-71
2023/12/15 08:55:58;;;;;;;6.00;4.40;;;5.10;99.90;;;;;;5038540;28;20215;-72
2023/12/15 08:58:28;;;;;;;7.40;3.83;;;5.30;99.90;;;;;;5046082;28;20295;-72
2023/12/15 09:00:55;;;;;;;5.05;4.55;;;5.20;99.90;;;;;;5045493;28;20234;-72
2023/12/15 09:03:22;;;;;;;6.10;5.10;;;5.20;99.90;;;;;;5042587;28;20295;-72
2023/12/15 09:05:49;;;;;;;6.13;4.45;;;5.10;99.90;;;;;;5043455;28;20198;-71
2023/12/15 09:08:16;;;;;;;6.20;4.78;;;5.20;99.90;;;;;;5046183;28;20652;-72
2023/12/15 09:10:46;;;;;;;7.93;5.40;;;5.10;99.90;;;;;;5045352;28;20841;-71
2023/12/15 09:13:14;;;;;;;8.00;5.55;;;5.10;99.90;;;;;;5032997;28;20689;-71
2023/12/15 09:15:42;;;;;;;6.80;4.43;;;5.30;99.90;;;;;;5040865;28;20206;-71
2023/12/15 09:18:09;;;;;;;5.28;3.50;;;5.10;99.90;;;;;;5044893;28;20200;-71
2023/12/15 09:20:35;;;;;;;6.93;4.47;;;5.20;99.90;;;;;;5044894;28;20203;-72
2023/12/15 09:23:06;;;;;;;5.28;3.20;;;5.10;99.90;;;;;;5045760;28;20200;-71
2023/12/15 09:25:33;;;;;;;5.95;4.28;;;5.20;99.90;;;;;;5045836;28;20200;-71
2023/12/15 09:28:00;;;;;;;8.45;4.40;;;5.20;99.90;;;;;;5041314;28;20202;-70
2023/12/15 09:30:26;;;;;;;6.07;4.65;;;5.10;99.90;;;;;;5039426;28;20286;-70
2023/12/15 09:32:54;;;;;;;5.05;3.75;;;5.30;99.90;;;;;;5044019;28;20204;-71
2023/12/15 09:35:21;;;;;;;6.00;4.70;;;5.30;99.90;;;;;;5045250;28;20203;-72
2023/12/15 09:37:48;;;;;;;4.85;4.45;;;5.40;99.90;;;;;;5047828;28;20291;-73
2023/12/15 09:40:20;;;;;;;6.43;4.60;;;5.40;99.90;;;;;;5045065;28;20297;-71
2023/12/15 09:42:47;;;;;;;8.43;5.38;;;5.60;99.90;;;;;;5045497;28;20231;-71
2023/12/15 09:45:14;;;;;;;4.47;3.50;;;5.50;99.90;;;;;;5047501;28;20215;-71
2023/12/15 09:47:46;;;;;;;6.63;4.35;;;5.40;99.90;;;;;;5048390;28;20238;-71
2023/12/15 09:50:16;;;;;;;4.38;3.97;;;5.50;99.90;;;;;;5049126;28;20202;-72
2023/12/15 09:52:43;;;;;;;5.25;3.67;;;5.50;99.90;;;;;;5049199;28;20223;-71
2023/12/15 09:55:11;;;;;;;7.25;4.05;;;5.60;99.90;;;;;;5051954;28;20192;-72
2023/12/15 09:57:39;;;;;;;4.97;4.00;;;5.50;99.90;;;;;;5049375;28;20202;-72
2023/12/15 10:00:07;;;;;;;4.53;4.13;;;5.70;99.90;;;;;;5041181;28;20203;-71
2023/12/15 10:02:35;;;;;;;4.78;2.78;;;5.80;99.90;;;;;;5044702;28;20308;-71
2023/12/15 10:05:01;;;;;;;6.85;4.53;;;5.70;99.90;;;;;;5038698;28;20291;-71
2023/12/15 10:07:30;;;;;;;4.38;3.35;;;5.90;99.90;;;;;;5047234;28;20204;-72
2023/12/15 10:09:56;;;;;;;4.78;4.38;;;5.80;99.90;;;;;;5047592;28;20204;-72
2023/12/15 10:12:25;;;;;;;8.43;4.70;;;5.90;99.90;;;;;;5049226;28;20677;-72
2023/12/15 10:14:52;;;;;;;4.50;3.40;;;5.90;99.90;;;;;;5048395;28;20196;-72
2023/12/15 10:17:19;;;;;;;5.45;4.95;;;6.00;99.90;;;;;;5048683;28;20722;-72
2023/12/15 10:19:46;;;;;;;5.47;4.32;;;5.90;99.90;;;;;;5047012;28;20595;-72
2023/12/15 10:22:12;;;;;;;5.00;3.55;;;5.80;99.90;;;;;;5047117;28;20231;-70
2023/12/15 10:24:41;;;;;;;4.55;3.20;;;5.80;99.90;;;;;;5048943;28;20208;-71
2023/12/15 10:27:08;;;;;;;5.88;4.13;;;5.70;99.90;;;;;;5048374;28;20199;-72
2023/12/15 10:29:38;;;;;;;3.78;3.22;;;5.70;99.90;;;;;;5048567;28;20295;-74
2023/12/15 10:32:06;;;;;;;7.70;5.30;;;5.80;99.90;;;;;;5045952;28;20676;-75
2023/12/15 10:34:33;;;;;;;6.05;3.88;;;5.80;99.90;;;;;;5049262;28;20576;-74
2023/12/15 10:37:01;;;;;;;4.67;3.63;;;5.90;99.90;;;;;;5050366;28;20203;-79
2023/12/15 10:39:28;;;;;;;5.47;3.80;;;5.90;99.90;;;;;;5046955;28;20704;-72
2023/12/15 10:41:58;;;;;;;4.30;3.55;;;5.90;99.90;;;;;;5046099;28;20230;-74
2023/12/15 10:44:26;;;;;;;5.10;4.22;;;6.10;99.90;;;;;;5045697;28;20193;-73
2023/12/15 10:46:53;;;;;;;5.65;4.10;;;6.10;99.90;;;;;;5043622;28;20210;-73
2023/12/15 10:49:21;;;;;;;3.70;2.92;;;6.10;99.90;;;;;;5044726;28;20236;-73
2023/12/15 10:51:48;;;;;;;5.83;3.57;;;6.00;99.90;;;;;;5046011;28;20238;-74
2023/12/15 10:54:17;;;;;;;7.15;3.85;;;6.00;99.90;;;;;;5051073;28;20631;-75
2023/12/15 10:56:45;;;;;;;3.10;2.80;;;6.10;99.90;;;;;;5041070;28;20251;-75
2023/12/15 10:59:13;;;;;;;4.88;3.67;;;6.20;99.90;;;;;;5048385;28;20623;-75
2023/12/15 11:01:43;;;;;;;5.22;3.60;;;6.20;99.90;;;;;;5048249;28;20224;-74
2023/12/15 11:04:21;;;;;;;4.90;3.40;;;6.30;99.90;;;;;;5048458;28;20196;-74
2023/12/15 11:06:49;;;;;;;4.43;3.42;;;6.30;99.90;;;;;;5047389;28;20630;-74
2023/12/15 11:09:28;;;;;;;4.32;3.40;;;6.30;99.90;;;;;;5047897;28;20200;-74
2023/12/15 11:12:21;;;;;;;5.00;3.77;;;6.20;99.90;;;;;;5048217;28;20203;-74
2023/12/15 11:14:53;;;;;;;4.33;3.73;;;6.20;99.90;;;;;;5045507;28;20627;-74
2023/12/15 11:17:20;;;;;;;5.40;4.30;;;6.30;99.90;;;;;;5046588;28;20631;-74
2023/12/15 11:19:50;;;;;;;5.63;3.27;;;6.30;99.90;;;;;;5047500;28;20200;-75
2023/12/15 11:22:18;;;;;;;5.87;3.10;;;6.40;99.90;;;;;;5041790;28;21021;-74
2023/12/15 11:24:45;;;;;;;4.10;3.37;;;6.50;99.90;;;;;;5047219;28;20648;-75
2023/12/15 11:27:12;;;;;;;3.60;3.10;;;6.60;99.90;;;;;;5047577;28;20638;-74
2023/12/15 11:29:40;;;;;;;4.20;3.37;;;6.60;99.90;;;;;;5046197;28;20619;-74
2023/12/15 11:32:30;;;;;;;4.43;3.47;;;6.60;99.90;;;;;;5045256;28;20762;-74
2023/12/15 11:34:58;;;;;;;4.17;3.30;;;6.60;99.90;;;;;;5047166;28;21136;-75
2023/12/15 11:37:26;;;;;;;3.37;3.07;;;6.60;99.90;;;;;;5049763;28;20658;-75
2023/12/15 11:39:53;;;;;;;3.67;3.30;;;6.60;99.90;;;;;;5046904;28;20633;-74
2023/12/15 11:42:20;;;;;;;6.83;4.40;;;6.60;99.90;;;;;;5047368;28;20665;-74
2023/12/15 11:44:47;;;;;;;5.13;3.60;;;6.70;99.90;;;;;;5047461;28;20634;-75
2023/12/15 11:47:14;;;;;;;3.87;3.03;;;6.60;99.90;;;;;;5045805;28;20634;-74
2023/12/15 11:49:43;;;;;;;4.70;3.20;;;6.60;99.90;;;;;;5046472;28;20626;-74
2023/12/15 11:52:11;;;;;;;3.80;3.07;;;6.60;99.90;;;;;;5047202;28;20630;-75
2023/12/15 11:54:39;;;;;;;5.33;3.03;;;6.70;99.90;;;;;;5049909;28;20615;-74
2023/12/15 11:57:06;;;;;;;5.77;2.83;;;6.70;99.90;;;;;;5040979;28;21175;-74
2023/12/15 11:59:37;;;;;;;3.37;2.63;;;6.60;99.90;;;;;;5046715;28;20641;-74
2023/12/15 12:02:06;;;;;;;4.07;3.43;;;6.60;99.90;;;;;;5047073;28;20692;-74
2023/12/15 12:04:33;;;;;;;3.90;3.17;;;6.60;99.90;;;;;;5046578;28;20634;-74
2023/12/15 12:07:02;;;;;;;4.37;3.33;;;6.60;99.90;;;;;;5046269;28;20630;-74
2023/12/15 12:09:29;;;;;;;2.70;2.50;;;6.50;99.90;;;;;;5045579;28;20623;-74
2023/12/15 12:11:57;;;;;;;4.47;3.17;;;6.60;99.90;;;;;;5047001;28;20630;-74
2023/12/15 12:14:27;;;;;;;3.73;2.30;;;6.60;99.90;;;;;;5046887;28;20622;-75
2023/12/15 12:16:55;;;;;;;4.50;2.53;;;6.60;99.90;;;;;;5046070;28;20729;-75
2023/12/15 12:19:22;;;;;;;3.53;2.67;;;6.60;99.90;;;;;;5046884;28;20631;-75
2023/12/15 12:21:52;;;;;;;2.53;2.23;;;6.70;99.90;;;;;;5036229;28;21239;-76
2023/12/15 12:24:20;;;;;;;2.50;2.30;;;6.70;99.90;;;;;;5040741;28;20623;-76
2023/12/15 12:26:48;;;;;;;4.50;2.87;;;6.80;99.90;;;;;;5046346;28;20629;-75
2023/12/15 12:29:15;;;;;;;2.73;1.87;;;6.80;99.90;;;;;;5046297;28;20964;-75
2023/12/15 12:31:42;;;;;;;3.13;2.80;;;6.70;99.90;;;;;;5046594;28;20644;-75
2023/12/15 12:34:09;;;;;;;4.90;3.10;;;6.70;99.90;;;;;;5046256;28;20717;-75
2023/12/15 12:36:36;;;;;;;2.93;1.63;;;6.70;99.90;;;;;;5042314;28;20687;-75
2023/12/15 12:39:05;;;;;;;3.47;3.17;;;6.70;99.90;;;;;;5046796;28;20622;-75
2023/12/15 12:41:34;;;;;;;3.90;2.60;;;6.70;99.90;;;;;;5045479;28;21183;-75
2023/12/15 12:44:01;;;;;;;2.63;2.43;;;6.60;99.90;;;;;;5046951;28;20634;-75
2023/12/15 12:46:28;;;;;;;4.20;3.00;;;6.70;99.90;;;;;;5046216;28;20630;-75
2023/12/15 12:48:55;;;;;;;3.90;2.20;;;6.70;99.90;;;;;;5045834;28;20637;-75
2023/12/15 12:51:23;;;;;;;3.20;2.40;;;6.70;99.90;;;;;;5046006;28;20633;-75
2023/12/15 12:53:50;;;;;;;3.20;2.70;;;6.70;99.90;;;;;;5047315;28;20630;-75
2023/12/15 12:56:17;;;;;;;3.10;2.77;;;6.60;99.90;;;;;;5045242;28;20700;-74
2023/12/15 12:58:45;;;;;;;4.87;2.83;;;6.70;99.90;;;;;;5045729;28;20634;-74